createdAt,value
2023-03-18T00:01:11.284Z,9.80
2023-03-18T00:03:40.786Z,9.70
2023-03-18T00:06:11.619Z,9.70
2023-03-18T00:08:40.215Z,9.60
2023-03-18T00:11:10.041Z,9.60
2023-03-18T00:13:38.435Z,9.60
2023-03-18T00:16:07.722Z,9.60
2023-03-18T00:18:36.654Z,9.60
2023-03-18T00:21:06.764Z,9.50
2023-03-18T00:23:35.607Z,9.50
2023-03-18T00:26:04.160Z,9.40
2023-03-18T00:28:32.669Z,9.50
2023-03-18T00:31:08.628Z,9.40
2023-03-18T00:33:38.119Z,9.40
2023-03-18T00:36:10.045Z,9.40
2023-03-18T00:38:38.456Z,9.30
2023-03-18T00:41:11.930Z,9.30
2023-03-18T00:43:47.063Z,9.60
2023-03-18T00:46:17.689Z,9.30
2023-03-18T00:48:46.785Z,9.30
2023-03-18T00:51:17.330Z,9.30
2023-03-18T00:53:47.717Z,9.30
2023-03-18T00:56:19.460Z,9.20
2023-03-18T00:58:48.027Z,9.20
2023-03-18T01:01:17.192Z,9.20
2023-03-18T01:03:46.188Z,9.30
2023-03-18T01:06:20.644Z,9.20
2023-03-18T01:08:48.660Z,9.20
2023-03-18T01:11:17.115Z,9.60
2023-03-18T01:13:46.003Z,9.60
2023-03-18T01:16:14.537Z,9.20
2023-03-18T01:18:42.932Z,9.20
2023-03-18T01:21:12.076Z,9.20
2023-03-18T01:23:42.363Z,9.20
2023-03-18T01:26:10.772Z,9.20
2023-03-18T01:28:38.785Z,9.20
2023-03-18T01:31:08.124Z,9.20
2023-03-18T01:33:36.780Z,9.20
2023-03-18T01:36:05.677Z,9.20
2023-03-18T01:38:33.776Z,9.10
2023-03-18T01:41:03.546Z,9.10
2023-03-18T01:43:34.921Z,9.20
2023-03-18T01:46:23.580Z,9.20
2023-03-18T01:48:52.731Z,9.10
2023-03-18T01:51:22.466Z,9.10
2023-03-18T01:53:51.582Z,9.10
2023-03-18T01:56:22.173Z,9.20
2023-03-18T01:58:53.620Z,9.10
2023-03-18T02:01:27.796Z,9.20
2023-03-18T02:03:57.023Z,9.10
2023-03-18T02:06:25.840Z,9.10
2023-03-18T02:08:54.080Z,9.10
2023-03-18T02:13:52.541Z,9.60
2023-03-18T02:16:25.617Z,9.10
2023-03-18T02:18:57.649Z,9.10
2023-03-18T02:21:38.847Z,9.10
2023-03-18T02:24:17.205Z,8.80
2023-03-18T02:26:52.621Z,9.40
2023-03-18T02:29:23.632Z,9.20
2023-03-18T02:31:52.480Z,9.10
2023-03-18T02:34:21.698Z,9.10
2023-03-18T02:36:49.864Z,9.10
2023-03-18T02:39:18.047Z,9.20
2023-03-18T02:41:46.218Z,9.30
2023-03-18T02:44:14.283Z,9.20
2023-03-18T02:46:53.939Z,9.20
2023-03-18T02:49:22.650Z,9.30
2023-03-18T02:51:51.589Z,9.20
2023-03-18T02:54:21.929Z,9.80
2023-03-18T02:56:50.006Z,9.30
2023-03-18T02:59:18.023Z,9.30
2023-03-18T03:01:50.272Z,9.30
2023-03-18T03:04:20.318Z,9.30
2023-03-18T03:06:48.299Z,9.30
2023-03-18T03:09:18.010Z,10.00
2023-03-18T03:11:47.471Z,9.40
2023-03-18T03:14:16.763Z,9.40
2023-03-18T03:16:45.194Z,9.40
2023-03-18T03:19:14.645Z,9.40
2023-03-18T03:21:42.529Z,9.40
2023-03-18T03:24:11.001Z,9.60
2023-03-18T03:26:39.305Z,9.40
2023-03-18T03:29:07.801Z,10.20
2023-03-18T03:31:36.790Z,9.80
2023-03-18T03:34:04.985Z,9.50
2023-03-18T03:36:34.483Z,9.50
2023-03-18T03:39:02.438Z,9.50
2023-03-18T03:41:30.382Z,9.60
2023-03-18T03:43:58.596Z,10.70
2023-03-18T03:46:26.637Z,10.30
2023-03-18T03:48:54.814Z,10.40
2023-03-18T03:51:22.747Z,9.70
2023-03-18T03:53:52.001Z,9.70
2023-03-18T03:56:19.958Z,9.70
2023-03-18T03:58:47.952Z,9.70
2023-03-18T04:01:15.959Z,9.70
2023-03-18T04:03:44.374Z,9.70
2023-03-18T04:06:12.450Z,9.60
2023-03-18T04:08:40.392Z,9.60
2023-03-18T04:11:10.065Z,9.80
2023-03-18T04:13:37.997Z,9.60
2023-03-18T04:16:07.803Z,9.60
2023-03-18T04:18:35.769Z,9.60
2023-03-18T04:21:03.729Z,9.60
2023-03-18T04:23:33.122Z,9.60
2023-03-18T04:26:01.611Z,9.60
2023-03-18T04:28:31.038Z,9.60
2023-03-18T04:30:59.716Z,9.60
2023-03-18T04:33:28.121Z,9.60
2023-03-18T04:35:56.384Z,9.60
2023-03-18T04:38:24.545Z,9.60
2023-03-18T04:40:52.656Z,9.60
2023-03-18T04:43:21.065Z,9.60
2023-03-18T04:45:50.383Z,9.60
2023-03-18T04:48:18.353Z,9.60
2023-03-18T04:50:46.741Z,9.50
2023-03-18T04:53:14.710Z,9.50
2023-03-18T04:55:43.500Z,9.60
2023-03-18T04:58:11.544Z,9.50
2023-03-18T05:00:39.566Z,10.20
2023-03-18T05:03:08.868Z,9.50
2023-03-18T05:05:38.660Z,9.50
2023-03-18T05:08:07.460Z,9.50
2023-03-18T05:10:36.088Z,9.50
2023-03-18T05:13:04.545Z,9.50
2023-03-18T05:15:32.765Z,9.50
2023-03-18T05:18:01.322Z,9.50
2023-03-18T05:20:30.667Z,9.80
2023-03-18T05:22:58.879Z,9.50
2023-03-18T05:25:27.218Z,9.60
2023-03-18T05:27:55.666Z,9.50
2023-03-18T05:30:23.931Z,10.00
2023-03-18T05:32:52.726Z,10.10
2023-03-18T05:35:21.994Z,9.50
2023-03-18T05:37:51.923Z,9.90
2023-03-18T05:40:19.991Z,9.50
2023-03-18T05:42:55.772Z,9.50
2023-03-18T05:45:24.685Z,9.50
2023-03-18T05:47:53.046Z,9.50
2023-03-18T05:50:30.114Z,9.40
2023-03-18T05:52:59.590Z,9.40
2023-03-18T05:55:28.281Z,9.90
2023-03-18T05:57:56.632Z,9.30
2023-03-18T06:00:25.685Z,9.30
2023-03-18T06:02:54.048Z,9.20
2023-03-18T06:05:22.664Z,9.20
2023-03-18T06:07:50.975Z,10.00
2023-03-18T06:10:20.489Z,9.20
2023-03-18T06:12:49.267Z,9.10
2023-03-18T06:15:17.282Z,9.10
2023-03-18T06:17:45.633Z,9.30
2023-03-18T06:20:15.762Z,9.70
2023-03-18T06:22:48.973Z,9.00
2023-03-18T06:25:20.689Z,9.00
2023-03-18T06:27:49.010Z,9.00
2023-03-18T06:30:18.033Z,9.50
2023-03-18T06:32:46.185Z,9.00
2023-03-18T06:35:15.542Z,9.00
2023-03-18T06:37:43.871Z,9.00
2023-03-18T06:40:13.250Z,9.00
2023-03-18T06:42:42.662Z,9.10
2023-03-18T06:45:11.706Z,9.10
2023-03-18T06:47:40.816Z,9.10
2023-03-18T06:50:09.404Z,9.10
2023-03-18T06:52:38.441Z,9.10
2023-03-18T06:55:07.731Z,9.10
2023-03-18T06:57:35.671Z,9.10
2023-03-18T07:00:06.168Z,9.20
2023-03-18T07:02:34.607Z,9.10
2023-03-18T07:05:02.648Z,9.10
2023-03-18T07:07:30.739Z,9.20
2023-03-18T07:09:59.096Z,9.20
2023-03-18T07:12:28.434Z,10.00
2023-03-18T07:14:56.334Z,9.20
2023-03-18T07:17:25.688Z,9.30
2023-03-18T07:19:53.968Z,9.30
2023-03-18T07:22:22.197Z,9.30
2023-03-18T07:24:50.324Z,9.30
2023-03-18T07:27:18.359Z,9.40
2023-03-18T07:29:46.627Z,9.30
2023-03-18T07:32:15.136Z,9.50
2023-03-18T07:34:44.541Z,9.50
2023-03-18T07:37:13.095Z,9.60
2023-03-18T07:39:41.258Z,9.70
2023-03-18T07:42:09.649Z,9.80
2023-03-18T07:44:37.891Z,9.90
2023-03-18T07:47:06.286Z,9.90
2023-03-18T07:49:34.748Z,10.00
2023-03-18T07:52:04.915Z,10.10
2023-03-18T07:54:33.302Z,10.00
2023-03-18T07:57:01.802Z,10.20
2023-03-18T07:59:30.100Z,10.30
2023-03-18T08:01:58.293Z,10.40
2023-03-18T08:04:26.435Z,10.50
2023-03-18T08:06:55.220Z,10.50
2023-03-18T08:09:26.863Z,10.60
2023-03-18T08:11:55.368Z,10.60
2023-03-18T08:14:23.510Z,10.70
2023-03-18T08:16:52.167Z,10.70
2023-03-18T08:19:20.213Z,10.80
2023-03-18T08:21:48.374Z,10.90
2023-03-18T08:24:18.408Z,10.90
2023-03-18T08:26:47.781Z,11.00
2023-03-18T08:29:15.798Z,11.00
2023-03-18T08:31:44.260Z,11.00
2023-03-18T08:34:12.405Z,11.00
2023-03-18T08:36:42.545Z,11.10
2023-03-18T08:39:11.153Z,11.20
2023-03-18T08:41:40.162Z,11.10
2023-03-18T08:44:10.791Z,11.30
2023-03-18T08:46:38.869Z,11.30
2023-03-18T08:49:07.674Z,11.50
2023-03-18T08:51:36.053Z,11.50
2023-03-18T08:54:04.106Z,11.60
2023-03-18T08:56:32.243Z,11.80
2023-03-18T08:59:00.409Z,11.80
2023-03-18T09:01:30.296Z,11.80
2023-03-18T09:03:59.503Z,12.00
2023-03-18T09:06:27.974Z,12.00
2023-03-18T09:08:56.128Z,12.10
2023-03-18T09:11:24.843Z,12.20
2023-03-18T09:13:53.631Z,12.30
2023-03-18T09:16:21.838Z,12.30
2023-03-18T09:18:51.355Z,12.40
2023-03-18T09:21:20.308Z,12.30
2023-03-18T09:23:49.637Z,12.50
2023-03-18T09:26:18.353Z,12.50
2023-03-18T09:28:46.496Z,12.50
2023-03-18T09:31:15.672Z,12.50
2023-03-18T09:33:43.861Z,12.60
2023-03-18T09:36:13.906Z,12.60
2023-03-18T09:38:42.528Z,12.60
2023-03-18T09:41:30.861Z,12.60
2023-03-18T09:44:10.609Z,12.60
2023-03-18T09:46:54.019Z,12.60
2023-03-18T09:49:43.901Z,12.60
2023-03-18T09:52:23.249Z,12.70
2023-03-18T09:54:58.799Z,12.80
2023-03-18T09:57:30.011Z,12.80
2023-03-18T10:00:06.344Z,12.90
2023-03-18T10:02:39.721Z,13.00
2023-03-18T10:05:13.676Z,13.00
2023-03-18T10:07:44.683Z,13.10
2023-03-18T10:10:23.119Z,13.10
2023-03-18T10:12:57.036Z,13.10
2023-03-18T10:15:32.049Z,13.30
2023-03-18T10:18:06.271Z,13.20
2023-03-18T10:20:43.248Z,13.30
2023-03-18T10:23:26.687Z,13.40
2023-03-18T10:25:57.761Z,13.50
2023-03-18T10:29:00.451Z,13.50
2023-03-18T10:31:37.601Z,13.60
2023-03-18T10:34:11.560Z,13.60
2023-03-18T10:36:47.400Z,13.80
2023-03-18T10:39:20.365Z,13.80
2023-03-18T10:41:51.215Z,13.80
2023-03-18T10:44:23.931Z,13.80
2023-03-18T10:46:58.528Z,13.80
2023-03-18T10:49:31.154Z,13.90
2023-03-18T10:52:06.156Z,13.80
2023-03-18T10:54:38.742Z,13.90
2023-03-18T10:57:07.172Z,13.90
2023-03-18T10:59:35.609Z,13.90
2023-03-18T11:02:06.442Z,13.90
2023-03-18T11:04:39.878Z,13.90
2023-03-18T11:07:15.506Z,13.90
2023-03-18T11:09:45.608Z,13.90
2023-03-18T11:12:19.327Z,14.00
2023-03-18T11:14:49.931Z,13.90
2023-03-18T11:17:23.925Z,13.80
2023-03-18T11:20:02.236Z,13.80
2023-03-18T11:22:33.126Z,13.80
2023-03-18T11:25:07.101Z,13.70
2023-03-18T11:27:39.500Z,13.70
2023-03-18T11:30:32.730Z,13.80
2023-03-18T11:33:06.030Z,13.80
2023-03-18T11:35:38.084Z,13.60
2023-03-18T11:38:07.557Z,13.70
2023-03-18T11:40:41.143Z,13.70
2023-03-18T11:43:18.842Z,13.80
2023-03-18T11:45:59.041Z,14.00
2023-03-18T11:48:36.930Z,14.10
2023-03-18T11:51:27.098Z,14.20
2023-03-18T11:54:08.548Z,14.30
2023-03-18T11:56:43.724Z,14.30
2023-03-18T11:59:33.584Z,14.40
2023-03-18T12:02:25.248Z,14.40
2023-03-18T12:05:22.560Z,14.60
2023-03-18T12:08:04.140Z,14.60
2023-03-18T12:10:36.437Z,14.60
2023-03-18T12:13:22.487Z,14.80
2023-03-18T12:15:58.790Z,14.80
2023-03-18T12:18:45.724Z,14.60
2023-03-18T12:21:33.480Z,14.70
2023-03-18T12:24:24.254Z,14.90
2023-03-18T12:27:02.934Z,15.00
2023-03-18T12:29:45.999Z,15.20
2023-03-18T12:32:26.412Z,15.20
2023-03-18T12:35:11.948Z,15.20
2023-03-18T12:37:52.492Z,15.30
2023-03-18T12:40:36.367Z,15.70
2023-03-18T12:43:28.661Z,15.80
2023-03-18T12:46:03.139Z,15.90
2023-03-18T12:48:44.088Z,15.80
2023-03-18T12:51:18.264Z,16.00
2023-03-18T12:53:50.344Z,15.90
2023-03-18T12:56:21.712Z,15.70
2023-03-18T12:58:54.128Z,16.00
2023-03-18T13:01:25.852Z,15.90
2023-03-18T13:03:58.654Z,16.40
2023-03-18T13:06:32.076Z,16.60
2023-03-18T13:09:15.526Z,16.70
2023-03-18T13:12:12.613Z,16.90
2023-03-18T13:14:49.585Z,17.00
2023-03-18T13:17:25.613Z,17.30
2023-03-18T13:19:58.187Z,17.70
2023-03-18T13:22:47.176Z,17.80
2023-03-18T13:25:25.164Z,17.90
2023-03-18T13:28:09.732Z,18.00
2023-03-18T13:30:54.031Z,18.20
2023-03-18T13:33:56.511Z,18.20
2023-03-18T13:36:49.292Z,18.20
2023-03-18T13:39:27.742Z,18.10
2023-03-18T13:42:17.881Z,17.80
2023-03-18T13:44:51.195Z,18.20
2023-03-18T13:47:21.783Z,18.40
2023-03-18T13:49:59.059Z,18.30
2023-03-18T13:52:36.524Z,18.70
2023-03-18T13:55:08.366Z,19.20
2023-03-18T13:57:48.925Z,19.20
2023-03-18T14:00:33.360Z,19.40
2023-03-18T14:03:23.302Z,19.50
2023-03-18T14:05:52.437Z,19.80
2023-03-18T14:08:48.560Z,20.10
2023-03-18T14:11:47.993Z,19.90
2023-03-18T14:14:57.887Z,19.90
2023-03-18T14:17:47.576Z,20.00
2023-03-18T14:20:40.703Z,20.10
2023-03-18T14:23:33.466Z,19.90
2023-03-18T14:26:05.101Z,19.70
2023-03-18T14:28:45.404Z,19.00
2023-03-18T14:31:35.379Z,19.10
2023-03-18T14:34:19.904Z,18.70
2023-03-18T14:37:25.393Z,18.90
2023-03-18T14:39:56.492Z,18.60
2023-03-18T14:42:38.973Z,18.90
2023-03-18T14:45:14.632Z,18.60
2023-03-18T14:47:47.733Z,18.70
2023-03-18T14:50:28.871Z,18.90
2023-03-18T14:53:03.969Z,18.90
2023-03-18T14:55:35.461Z,18.70
2023-03-18T14:58:05.418Z,18.40
2023-03-18T15:00:37.285Z,18.20
2023-03-18T15:03:08.943Z,18.40
2023-03-18T15:05:40.151Z,18.40
2023-03-18T15:08:15.819Z,18.20
2023-03-18T15:10:44.570Z,18.20
2023-03-18T15:13:16.321Z,18.10
2023-03-18T15:15:44.372Z,18.20
2023-03-18T15:18:20.776Z,18.20
2023-03-18T15:20:52.841Z,17.90
2023-03-18T15:23:22.930Z,17.70
2023-03-18T15:25:51.619Z,17.80
2023-03-18T15:28:25.020Z,17.90
2023-03-18T15:30:56.056Z,17.90
2023-03-18T15:33:27.244Z,17.60
2023-03-18T15:35:56.398Z,17.70
2023-03-18T15:38:28.966Z,17.50
2023-03-18T15:41:01.106Z,17.50
2023-03-18T15:43:32.571Z,17.70
2023-03-18T15:46:02.714Z,17.50
2023-03-18T15:48:35.043Z,17.40
2023-03-18T15:51:05.298Z,17.20
2023-03-18T15:53:43.336Z,17.30
2023-03-18T15:56:18.273Z,17.40
2023-03-18T15:58:58.060Z,17.40
2023-03-18T16:01:26.071Z,17.30
2023-03-18T16:03:54.652Z,17.40
2023-03-18T16:06:23.488Z,17.30
2023-03-18T16:08:51.437Z,17.10
2023-03-18T16:11:19.593Z,17.10
2023-03-18T16:13:48.993Z,17.10
2023-03-18T16:16:21.301Z,17.00
2023-03-18T16:18:49.557Z,16.80
2023-03-18T16:21:17.829Z,16.70
2023-03-18T16:23:47.001Z,16.60
2023-03-18T16:26:17.890Z,16.70
2023-03-18T16:28:48.554Z,16.60
2023-03-18T16:31:18.711Z,16.60
2023-03-18T16:33:47.303Z,16.50
2023-03-18T16:36:26.066Z,16.30
2023-03-18T16:38:54.270Z,16.30
2023-03-18T16:41:22.491Z,16.30
2023-03-18T16:43:50.859Z,16.30
2023-03-18T16:46:20.466Z,16.30
2023-03-18T16:48:49.955Z,16.20
2023-03-18T16:51:18.986Z,16.10
2023-03-18T16:53:47.227Z,16.10
2023-03-18T16:56:17.993Z,16.00
2023-03-18T16:58:46.364Z,16.00
2023-03-18T17:01:16.712Z,16.00
2023-03-18T17:03:46.560Z,15.90
2023-03-18T17:06:15.177Z,15.80
2023-03-18T17:08:43.206Z,15.70
2023-03-18T17:11:18.104Z,15.70
2023-03-18T17:13:47.097Z,15.80
2023-03-18T17:16:19.535Z,15.70
2023-03-18T17:18:49.618Z,15.80
2023-03-18T17:21:18.237Z,15.60
2023-03-18T17:23:47.642Z,15.60
2023-03-18T17:26:16.177Z,15.50
2023-03-18T17:28:47.632Z,15.50
2023-03-18T17:31:16.800Z,15.50
2023-03-18T17:33:44.900Z,15.40
2023-03-18T17:36:14.227Z,15.40
2023-03-18T17:38:42.201Z,15.30
2023-03-18T17:41:18.947Z,15.30
2023-03-18T17:43:47.350Z,15.20
2023-03-18T17:46:15.446Z,15.20
2023-03-18T17:48:43.744Z,15.10
2023-03-18T17:51:17.469Z,15.00
2023-03-18T17:53:47.893Z,14.80
2023-03-18T17:56:17.802Z,14.80
2023-03-18T17:58:47.417Z,14.60
2023-03-18T18:01:18.399Z,14.60
2023-03-18T18:03:47.575Z,14.60
2023-03-18T18:06:20.362Z,14.40
2023-03-18T18:08:48.766Z,14.30
2023-03-18T18:11:20.864Z,14.10
2023-03-18T18:13:50.000Z,14.00
2023-03-18T18:16:18.825Z,14.00
2023-03-18T18:18:49.700Z,14.00
2023-03-18T18:21:21.650Z,13.80
2023-03-18T18:23:49.623Z,13.90
2023-03-18T18:26:19.574Z,13.80
2023-03-18T18:28:49.432Z,13.80
2023-03-18T18:31:19.335Z,13.80
2023-03-18T18:33:50.123Z,14.10
2023-03-18T18:36:19.647Z,13.60
2023-03-18T18:38:47.586Z,13.70
2023-03-18T18:41:15.521Z,13.60
2023-03-18T18:43:43.565Z,13.60
2023-03-18T18:46:14.773Z,13.60
2023-03-18T18:48:44.713Z,13.50
2023-03-18T18:51:17.445Z,13.50
2023-03-18T18:53:47.756Z,13.40
2023-03-18T18:56:19.708Z,13.40
2023-03-18T18:58:49.349Z,13.40
2023-03-18T19:01:18.389Z,13.30
2023-03-18T19:03:48.280Z,13.30
2023-03-18T19:06:26.182Z,13.20
2023-03-18T19:08:57.757Z,13.40
2023-03-18T19:11:26.714Z,13.00
2023-03-18T19:13:55.345Z,12.90
2023-03-18T19:16:30.392Z,12.90
2023-03-18T19:18:59.912Z,12.80
2023-03-18T19:21:28.614Z,12.70
2023-03-18T19:23:58.750Z,12.70
2023-03-18T19:26:27.332Z,12.60
2023-03-18T19:28:59.400Z,12.60
2023-03-18T19:31:30.640Z,12.60
2023-03-18T19:34:00.680Z,12.60
2023-03-18T19:36:30.966Z,12.50
2023-03-18T19:39:02.310Z,12.60
2023-03-18T19:41:31.588Z,12.70
2023-03-18T19:44:04.191Z,12.50
2023-03-18T19:46:39.120Z,12.50
2023-03-18T19:49:14.077Z,12.50
2023-03-18T19:51:42.589Z,12.40
2023-03-18T19:54:33.720Z,12.50
2023-03-18T19:57:04.246Z,12.40
2023-03-18T19:59:38.644Z,12.40
2023-03-18T20:02:19.272Z,12.40
2023-03-18T20:04:49.451Z,12.30
2023-03-18T20:07:19.315Z,12.30
2023-03-18T20:09:49.678Z,12.40
2023-03-18T20:12:26.912Z,12.40
2023-03-18T20:14:55.202Z,12.30
2023-03-18T20:17:36.698Z,12.30
2023-03-18T20:20:05.447Z,12.20
2023-03-18T20:22:37.642Z,12.20
2023-03-18T20:25:13.531Z,12.30
2023-03-18T20:27:41.672Z,12.20
2023-03-18T20:30:24.218Z,12.20
2023-03-18T20:32:52.541Z,12.20
2023-03-18T20:35:21.403Z,12.20
2023-03-18T20:37:49.678Z,12.20
2023-03-18T20:40:23.114Z,12.10
2023-03-18T20:42:52.573Z,12.10
2023-03-18T20:45:22.373Z,12.40
2023-03-18T20:47:51.123Z,12.10
2023-03-18T20:50:21.406Z,12.00
2023-03-18T20:52:50.718Z,12.10
2023-03-18T20:55:29.179Z,12.00
2023-03-18T20:57:57.918Z,11.90
2023-03-18T21:00:27.855Z,12.00
2023-03-18T21:02:58.007Z,11.90
2023-03-18T21:05:26.176Z,12.00
2023-03-18T21:07:54.364Z,11.90
2023-03-18T21:10:26.093Z,12.10
2023-03-18T21:12:54.460Z,12.70
2023-03-18T21:15:24.309Z,12.80
2023-03-18T21:17:52.754Z,11.90
2023-03-18T21:20:23.210Z,12.30
2023-03-18T21:22:52.197Z,11.90
2023-03-18T21:25:21.800Z,12.00
2023-03-18T21:27:51.777Z,12.70
2023-03-18T21:30:22.169Z,11.90
2023-03-18T21:32:51.222Z,11.90
2023-03-18T21:35:21.656Z,11.90
2023-03-18T21:37:49.657Z,11.90
2023-03-18T21:40:20.334Z,11.80
2023-03-18T21:42:49.257Z,11.80
2023-03-18T21:45:20.558Z,11.80
2023-03-18T21:47:48.864Z,11.70
2023-03-18T21:50:22.134Z,11.70
2023-03-18T21:52:50.375Z,11.70
2023-03-18T21:55:18.697Z,11.70
2023-03-18T21:57:48.812Z,11.70
2023-03-18T22:00:21.736Z,11.60
2023-03-18T22:02:50.457Z,11.60
2023-03-18T22:05:20.424Z,11.60
2023-03-18T22:07:50.285Z,11.50
2023-03-18T22:10:20.288Z,11.60
2023-03-18T22:12:48.386Z,11.50
2023-03-18T22:15:39.121Z,11.50
2023-03-18T22:18:08.389Z,11.50
2023-03-18T22:20:37.274Z,11.50
2023-03-18T22:23:14.697Z,11.50
2023-03-18T22:25:43.403Z,11.50
2023-03-18T22:28:12.716Z,11.50
2023-03-18T22:30:44.079Z,11.40
2023-03-18T22:33:20.157Z,11.40
2023-03-18T22:35:48.706Z,11.30
2023-03-18T22:38:18.434Z,11.40
2023-03-18T22:40:48.314Z,11.40
2023-03-18T22:43:26.824Z,11.40
2023-03-18T22:45:56.805Z,11.30
2023-03-18T22:48:24.853Z,11.30
2023-03-18T22:50:53.691Z,11.30
2023-03-18T22:53:23.806Z,11.70
2023-03-18T22:55:54.481Z,11.30
2023-03-18T22:58:24.792Z,11.20
2023-03-18T23:00:53.241Z,11.20
2023-03-18T23:03:24.458Z,11.30
2023-03-18T23:05:54.437Z,11.30
2023-03-18T23:08:23.641Z,11.20
2023-03-18T23:10:53.550Z,11.20
2023-03-18T23:13:28.614Z,11.20
2023-03-18T23:15:58.131Z,11.20
2023-03-18T23:18:27.608Z,11.20
2023-03-18T23:20:55.935Z,11.20
2023-03-18T23:23:23.992Z,11.20
2023-03-18T23:25:53.400Z,11.20
2023-03-18T23:28:21.509Z,11.20
2023-03-18T23:30:51.065Z,11.40
2023-03-18T23:33:19.848Z,11.90
2023-03-18T23:35:49.275Z,11.20
2023-03-18T23:38:17.499Z,11.20
2023-03-18T23:40:45.667Z,11.20
2023-03-18T23:43:13.674Z,11.80
2023-03-18T23:45:41.885Z,11.20
2023-03-18T23:48:10.020Z,11.20
2023-03-18T23:50:38.039Z,11.20
2023-03-18T23:53:07.381Z,11.20
2023-03-18T23:55:36.043Z,11.20
2023-03-18T23:58:04.204Z,11.20
